createdAt,value
2022-09-15T00:00:33.827Z,93.09
2022-09-15T00:01:33.855Z,94.10
2022-09-15T00:02:33.936Z,94.96
2022-09-15T00:03:33.791Z,95.26
2022-09-15T00:04:33.776Z,95.17
2022-09-15T00:05:33.798Z,95.87
2022-09-15T00:06:33.775Z,95.87
2022-09-15T00:07:33.814Z,95.01
2022-09-15T00:08:33.744Z,96.08
2022-09-15T00:09:33.752Z,96.68
2022-09-15T00:10:33.773Z,96.98
2022-09-15T00:11:33.816Z,97.60
2022-09-15T00:12:33.753Z,97.29
2022-09-15T00:13:33.735Z,97.69
2022-09-15T00:14:33.763Z,97.69
2022-09-15T00:15:33.706Z,97.29
2022-09-15T00:16:33.801Z,98.00
2022-09-15T00:17:33.665Z,98.00
2022-09-15T00:18:33.684Z,98.16
2022-09-15T00:19:33.662Z,97.34
2022-09-15T00:20:33.665Z,96.63
2022-09-15T00:21:33.691Z,95.82
2022-09-15T00:22:33.662Z,95.51
2022-09-15T00:23:33.637Z,95.51
2022-09-15T00:24:33.628Z,96.02
2022-09-15T00:25:33.601Z,95.98
2022-09-15T00:26:33.594Z,95.87
2022-09-15T00:27:33.593Z,95.37
2022-09-15T00:28:33.605Z,94.35
2022-09-15T00:29:33.598Z,94.66
2022-09-15T00:30:33.600Z,94.50
2022-09-15T00:31:33.559Z,95.31
2022-09-15T00:32:33.596Z,95.62
2022-09-15T00:33:33.572Z,96.12
2022-09-15T00:34:33.595Z,95.98
2022-09-15T00:35:33.559Z,95.87
2022-09-15T00:36:33.537Z,95.98
2022-09-15T00:37:33.531Z,95.83
2022-09-15T00:38:33.555Z,95.94
2022-09-15T00:39:33.494Z,95.73
2022-09-15T00:40:33.593Z,95.42
2022-09-15T00:41:33.489Z,94.51
2022-09-15T00:42:33.491Z,94.00
2022-09-15T00:43:33.473Z,93.90
2022-09-15T00:44:33.537Z,93.86
2022-09-15T00:45:33.552Z,93.60
2022-09-15T00:46:33.499Z,94.35
2022-09-15T00:47:33.425Z,95.26
2022-09-15T00:48:33.435Z,95.51
2022-09-15T00:49:33.427Z,96.68
2022-09-15T00:50:33.434Z,97.29
2022-09-15T00:51:33.455Z,97.69
2022-09-15T00:52:33.399Z,97.69
2022-09-15T00:53:33.391Z,97.69
2022-09-15T00:54:33.399Z,97.19
2022-09-15T00:55:33.391Z,98.00
2022-09-15T00:56:33.366Z,97.60
2022-09-15T00:57:33.512Z,97.64
2022-09-15T00:58:33.359Z,98.14
2022-09-15T00:59:33.357Z,97.49
2022-09-15T01:00:33.333Z,98.91
2022-09-15T01:01:33.380Z,97.89
2022-09-15T01:02:33.484Z,98.10
2022-09-15T01:03:33.328Z,97.65
2022-09-15T01:04:33.314Z,97.75
2022-09-15T01:05:33.293Z,97.55
2022-09-15T01:06:33.315Z,96.73
2022-09-15T01:07:33.361Z,96.58
2022-09-15T01:08:33.264Z,97.55
2022-09-15T01:09:33.301Z,97.49
2022-09-15T01:10:33.414Z,97.89
2022-09-15T01:11:33.266Z,96.88
2022-09-15T01:12:33.258Z,97.80
2022-09-15T01:13:33.262Z,98.10
2022-09-15T01:14:33.216Z,98.75
2022-09-15T01:15:33.305Z,98.66
2022-09-15T01:16:33.277Z,98.91
2022-09-15T01:17:33.198Z,99.22
2022-09-15T01:18:33.214Z,99.06
2022-09-15T01:19:33.219Z,98.96
2022-09-15T01:20:33.205Z,98.86
2022-09-15T01:21:33.166Z,99.47
2022-09-15T01:22:33.161Z,99.82
2022-09-15T01:23:33.181Z,99.77
2022-09-15T01:24:33.141Z,99.67
2022-09-15T01:25:33.152Z,99.63
2022-09-15T01:26:33.153Z,99.57
2022-09-15T01:27:44.650Z,99.52
2022-09-15T01:28:35.123Z,99.32
2022-09-15T01:29:33.095Z,99.22
2022-09-15T01:30:33.087Z,98.46
2022-09-15T01:31:33.192Z,97.89
2022-09-15T01:32:33.072Z,98.00
2022-09-15T01:33:33.113Z,97.69
2022-09-15T01:34:33.065Z,97.89
2022-09-15T01:35:33.055Z,97.89
2022-09-15T01:36:33.044Z,97.80
2022-09-15T01:37:33.020Z,97.44
2022-09-15T01:38:33.124Z,97.14
2022-09-15T01:39:33.132Z,97.24
2022-09-15T01:40:33.098Z,96.73
2022-09-15T01:41:33.008Z,96.73
2022-09-15T01:42:33.010Z,96.73
2022-09-15T01:43:33.009Z,96.43
2022-09-15T01:44:33.013Z,96.33
2022-09-15T01:45:33.061Z,96.63
2022-09-15T01:46:32.971Z,97.60
2022-09-15T01:47:32.967Z,97.55
2022-09-15T01:48:32.968Z,96.83
2022-09-15T01:49:32.980Z,97.19
2022-09-15T01:50:32.953Z,97.69
2022-09-15T01:51:32.954Z,98.00
2022-09-15T01:52:32.959Z,97.89
2022-09-15T01:53:32.934Z,97.55
2022-09-15T01:54:32.939Z,97.24
2022-09-15T01:55:32.895Z,96.68
2022-09-15T01:56:32.898Z,96.98
2022-09-15T01:57:32.916Z,97.89
2022-09-15T01:58:32.884Z,97.39
2022-09-15T01:59:32.896Z,97.44
2022-09-15T02:00:32.860Z,97.85
2022-09-15T02:01:32.968Z,97.55
2022-09-15T02:02:32.923Z,96.63
2022-09-15T02:03:32.857Z,96.68
2022-09-15T02:04:32.842Z,97.75
2022-09-15T02:05:32.832Z,97.24
2022-09-15T02:06:32.848Z,97.55
2022-09-15T02:07:32.811Z,96.69
2022-09-15T02:08:32.841Z,96.83
2022-09-15T02:09:32.834Z,97.14
2022-09-15T02:10:32.791Z,96.43
2022-09-15T02:11:32.774Z,96.33
2022-09-15T02:12:32.766Z,95.82
2022-09-15T02:13:32.784Z,96.23
2022-09-15T02:14:35.277Z,97.39
2022-09-15T02:15:34.599Z,96.78
2022-09-15T02:16:34.786Z,97.69
2022-09-15T02:17:34.939Z,97.89
2022-09-15T02:18:33.614Z,97.69
2022-09-15T02:19:33.788Z,96.94
2022-09-15T02:20:34.460Z,97.44
2022-09-15T02:21:36.991Z,97.55
2022-09-15T02:22:34.704Z,96.59
2022-09-15T02:23:35.771Z,96.73
2022-09-15T02:24:33.327Z,96.63
2022-09-15T02:25:35.455Z,97.29
2022-09-15T02:26:33.477Z,97.60
2022-09-15T02:27:34.133Z,97.69
2022-09-15T02:28:35.991Z,96.83
2022-09-15T02:29:33.846Z,96.94
2022-09-15T02:30:36.724Z,97.24
2022-09-15T02:31:33.317Z,97.60
2022-09-15T02:32:33.559Z,97.50
2022-09-15T02:33:34.322Z,96.84
2022-09-15T02:34:34.263Z,96.95
2022-09-15T02:35:33.566Z,96.14
2022-09-15T02:36:34.112Z,95.32
2022-09-15T02:37:36.362Z,94.41
2022-09-15T02:38:33.349Z,93.49
2022-09-15T02:39:33.985Z,94.51
2022-09-15T02:40:33.716Z,94.57
2022-09-15T02:41:33.825Z,94.46
2022-09-15T02:42:33.741Z,94.37
2022-09-15T02:43:34.380Z,94.26
2022-09-15T02:44:34.631Z,94.57
2022-09-15T02:45:36.655Z,93.76
2022-09-15T02:46:33.438Z,93.81
2022-09-15T02:47:33.601Z,93.55
2022-09-15T02:48:33.231Z,92.84
2022-09-15T02:49:36.074Z,93.55
2022-09-15T02:50:35.254Z,93.35
2022-09-15T02:51:35.107Z,93.55
2022-09-15T02:52:34.163Z,93.54
2022-09-15T02:53:39.558Z,95.47
2022-09-15T02:54:35.356Z,95.72
2022-09-15T02:55:34.138Z,96.02
2022-09-15T02:56:33.243Z,95.92
2022-09-15T02:57:32.969Z,95.46
2022-09-15T02:58:33.864Z,97.08
2022-09-15T02:59:34.878Z,97.08
2022-09-15T03:00:33.759Z,97.80
2022-09-15T03:01:39.671Z,97.80
2022-09-15T03:02:35.224Z,97.60
2022-09-15T03:03:33.690Z,97.55
2022-09-15T03:04:34.645Z,97.55
2022-09-15T03:05:37.220Z,96.38
2022-09-15T03:06:35.574Z,96.83
2022-09-15T03:07:34.969Z,95.82
2022-09-15T03:08:33.426Z,95.26
2022-09-15T03:09:34.828Z,95.47
2022-09-15T03:10:36.091Z,94.35
2022-09-15T03:11:36.696Z,94.15
2022-09-15T03:12:33.671Z,94.05
2022-09-15T03:13:37.586Z,94.66
2022-09-15T03:14:34.593Z,95.31
2022-09-15T03:15:33.706Z,95.92
2022-09-15T03:16:36.054Z,95.72
2022-09-15T03:17:33.908Z,96.78
2022-09-15T03:18:41.202Z,96.58
2022-09-15T03:19:35.615Z,96.47
2022-09-15T03:20:32.219Z,96.98
2022-09-15T03:21:32.255Z,96.58
2022-09-15T03:22:32.269Z,97.44
2022-09-15T03:23:32.198Z,96.92
2022-09-15T03:24:32.205Z,97.94
2022-09-15T03:25:32.194Z,97.74
2022-09-15T03:26:32.238Z,97.53
2022-09-15T03:27:32.207Z,97.23
2022-09-15T03:28:32.166Z,97.64
2022-09-15T03:29:32.182Z,97.94
2022-09-15T03:30:32.174Z,97.74
2022-09-15T03:31:32.203Z,97.74
2022-09-15T03:32:32.187Z,97.84
2022-09-15T03:33:32.161Z,98.45
2022-09-15T03:34:32.122Z,98.45
2022-09-15T03:35:32.120Z,97.84
2022-09-15T03:36:32.143Z,97.94
2022-09-15T03:37:32.109Z,98.55
2022-09-15T03:38:32.093Z,98.66
2022-09-15T03:39:32.120Z,98.55
2022-09-15T03:40:32.192Z,98.80
2022-09-15T03:41:32.106Z,98.55
2022-09-15T03:42:32.065Z,98.30
2022-09-15T03:43:32.058Z,98.14
2022-09-15T03:44:32.094Z,97.94
2022-09-15T03:45:32.080Z,98.70
2022-09-15T03:46:32.030Z,98.55
2022-09-15T03:47:32.039Z,98.96
2022-09-15T03:48:32.014Z,99.06
2022-09-15T03:49:32.047Z,99.41
2022-09-15T03:50:32.021Z,99.21
2022-09-15T03:51:31.991Z,99.01
2022-09-15T03:52:32.035Z,99.01
2022-09-15T03:53:31.976Z,98.91
2022-09-15T03:54:31.984Z,99.31
2022-09-15T03:55:31.995Z,99.21
2022-09-15T03:56:31.969Z,99.87
2022-09-15T03:57:31.942Z,99.82
2022-09-15T03:58:31.945Z,99.87
2022-09-15T03:59:31.956Z,99.56
2022-09-15T04:00:31.951Z,99.99
2022-09-15T04:01:31.988Z,99.99
2022-09-15T04:02:31.902Z,99.99
2022-09-15T04:03:31.934Z,99.92
2022-09-15T04:04:31.916Z,99.82
2022-09-15T04:05:31.908Z,99.62
2022-09-15T04:06:31.915Z,99.52
2022-09-15T04:07:31.874Z,99.62
2022-09-15T04:08:31.871Z,99.52
2022-09-15T04:09:31.861Z,99.31
2022-09-15T04:10:31.884Z,98.86
2022-09-15T04:11:31.855Z,99.06
2022-09-15T04:12:31.855Z,99.22
2022-09-15T04:13:31.870Z,98.10
2022-09-15T04:14:31.842Z,98.50
2022-09-15T04:15:31.809Z,97.85
2022-09-15T04:16:31.890Z,98.16
2022-09-15T04:17:31.829Z,96.69
2022-09-15T04:18:31.776Z,95.98
2022-09-15T04:19:31.823Z,95.57
2022-09-15T04:20:31.792Z,95.87
2022-09-15T04:21:31.771Z,95.22
2022-09-15T04:22:32.787Z,94.92
2022-09-15T04:23:31.756Z,94.00
2022-09-15T04:24:31.751Z,93.29
2022-09-15T04:25:31.728Z,93.65
2022-09-15T04:26:31.710Z,92.54
2022-09-15T04:27:31.739Z,92.13
2022-09-15T04:28:31.721Z,91.93
2022-09-15T04:29:31.709Z,91.83
2022-09-15T04:30:31.689Z,91.63
2022-09-15T04:31:32.696Z,91.52
2022-09-15T04:32:31.729Z,91.58
2022-09-15T04:33:31.662Z,91.17
2022-09-15T04:34:31.666Z,91.32
2022-09-15T04:35:31.695Z,91.87
2022-09-15T04:36:31.644Z,92.38
2022-09-15T04:37:31.667Z,92.89
2022-09-15T04:38:31.651Z,93.40
2022-09-15T04:39:31.710Z,93.49
2022-09-15T04:40:31.649Z,93.49
2022-09-15T04:41:31.614Z,93.40
2022-09-15T04:42:31.650Z,93.55
2022-09-15T04:43:31.587Z,93.35
2022-09-15T04:44:31.591Z,93.05
2022-09-15T04:45:31.616Z,93.05
2022-09-15T04:46:31.717Z,92.84
2022-09-15T04:47:31.620Z,92.03
2022-09-15T04:48:31.565Z,91.63
2022-09-15T04:49:31.547Z,91.63
2022-09-15T04:50:32.518Z,91.28
2022-09-15T04:51:31.633Z,90.81
2022-09-15T04:52:31.500Z,90.47
2022-09-15T04:53:31.505Z,90.57
2022-09-15T04:54:31.514Z,90.26
2022-09-15T04:55:31.544Z,90.06
2022-09-15T04:56:31.494Z,89.76
2022-09-15T04:57:31.477Z,89.65
2022-09-15T04:58:31.472Z,89.19
2022-09-15T04:59:31.458Z,89.80
2022-09-15T05:00:31.504Z,91.20
2022-09-15T05:01:31.479Z,91.91
2022-09-15T05:02:31.548Z,92.22
2022-09-15T05:03:31.429Z,92.83
2022-09-15T05:04:31.416Z,92.83
2022-09-15T05:05:31.453Z,92.52
2022-09-15T05:06:31.417Z,92.52
2022-09-15T05:07:31.377Z,92.67
2022-09-15T05:08:31.386Z,92.67
2022-09-15T05:09:31.404Z,92.82
2022-09-15T05:10:31.371Z,93.12
2022-09-15T05:11:31.379Z,93.32
2022-09-15T05:12:31.392Z,94.13
2022-09-15T05:13:31.343Z,94.74
2022-09-15T05:14:31.355Z,94.44
2022-09-15T05:15:31.366Z,94.85
2022-09-15T05:16:31.407Z,94.18
2022-09-15T05:17:31.335Z,95.30
2022-09-15T05:18:31.321Z,95.70
2022-09-15T05:19:31.334Z,95.97
2022-09-15T05:20:31.309Z,95.86
2022-09-15T05:21:31.290Z,95.46
2022-09-15T05:22:31.405Z,94.90
2022-09-15T05:23:31.265Z,94.05
2022-09-15T05:24:31.294Z,93.48
2022-09-15T05:25:31.287Z,92.83
2022-09-15T05:26:31.237Z,92.22
2022-09-15T05:27:31.298Z,91.20
2022-09-15T05:28:31.262Z,91.30
2022-09-15T05:29:31.235Z,91.41
2022-09-15T05:30:42.462Z,91.20
2022-09-15T05:31:33.324Z,91.25
2022-09-15T05:32:31.212Z,92.06
2022-09-15T05:33:31.197Z,92.71
2022-09-15T05:34:31.173Z,93.57
2022-09-15T05:35:31.219Z,93.87
2022-09-15T05:36:31.186Z,94.28
2022-09-15T05:37:31.177Z,94.28
2022-09-15T05:38:31.158Z,94.43
2022-09-15T05:39:31.180Z,94.63
2022-09-15T05:40:31.165Z,95.14
2022-09-15T05:41:31.136Z,95.09
2022-09-15T05:42:31.130Z,94.69
2022-09-15T05:43:31.110Z,94.79
2022-09-15T05:44:31.135Z,94.93
2022-09-15T05:45:31.117Z,95.34
2022-09-15T05:46:31.146Z,95.40
2022-09-15T05:47:31.113Z,94.64
2022-09-15T05:48:31.079Z,94.34
2022-09-15T05:49:31.101Z,93.59
2022-09-15T05:50:31.075Z,92.77
2022-09-15T05:51:31.099Z,92.91
2022-09-15T05:52:31.044Z,93.87
2022-09-15T05:53:31.057Z,93.67
2022-09-15T05:54:31.046Z,93.77
2022-09-15T05:55:31.025Z,94.73
2022-09-15T05:56:31.036Z,95.46
2022-09-15T05:57:31.034Z,95.36
2022-09-15T05:58:30.988Z,95.05
2022-09-15T05:59:30.979Z,94.13
2022-09-15T06:00:31.002Z,93.32
2022-09-15T06:01:31.030Z,93.73
2022-09-15T06:02:31.016Z,93.52
2022-09-15T06:03:31.263Z,93.89
2022-09-15T06:04:31.949Z,93.44
2022-09-15T06:05:30.930Z,93.13
2022-09-15T06:06:30.935Z,92.63
2022-09-15T06:07:30.962Z,91.56
2022-09-15T06:08:30.924Z,91.26
2022-09-15T06:09:30.934Z,91.26
2022-09-15T06:10:30.874Z,91.12
2022-09-15T06:11:30.984Z,90.41
2022-09-15T06:12:31.006Z,89.90
2022-09-15T06:13:30.940Z,89.96
2022-09-15T06:14:30.955Z,89.45
2022-09-15T06:15:30.925Z,89.65
2022-09-15T06:16:31.045Z,89.31
2022-09-15T06:17:31.021Z,88.29
2022-09-15T06:18:30.901Z,88.60
2022-09-15T06:19:30.993Z,89.01
2022-09-15T06:20:30.898Z,88.90
2022-09-15T06:21:30.794Z,88.70
2022-09-15T06:22:30.938Z,88.95
2022-09-15T06:23:30.811Z,89.65
2022-09-15T06:24:30.847Z,89.96
2022-09-15T06:25:30.798Z,91.08
2022-09-15T06:26:30.759Z,91.28
2022-09-15T06:27:30.748Z,91.38
2022-09-15T06:28:30.897Z,91.32
2022-09-15T06:29:30.765Z,91.52
2022-09-15T06:30:30.726Z,92.28
2022-09-15T06:31:30.830Z,93.40
2022-09-15T06:32:30.777Z,94.00
2022-09-15T06:33:31.787Z,93.49
2022-09-15T06:34:30.730Z,93.40
2022-09-15T06:35:30.749Z,93.40
2022-09-15T06:36:30.700Z,92.79
2022-09-15T06:37:30.685Z,93.09
2022-09-15T06:38:30.672Z,93.09
2022-09-15T06:39:30.666Z,92.44
2022-09-15T06:40:30.774Z,92.58
2022-09-15T06:41:47.148Z,92.94
2022-09-15T06:42:32.667Z,93.19
2022-09-15T06:43:30.652Z,93.60
2022-09-15T06:44:30.619Z,93.07
2022-09-15T06:45:30.655Z,94.09
2022-09-15T06:46:30.694Z,94.60
2022-09-15T06:47:30.594Z,95.46
2022-09-15T06:48:30.683Z,95.86
2022-09-15T06:49:30.591Z,95.56
2022-09-15T06:50:30.643Z,95.62
2022-09-15T06:51:30.595Z,95.37
2022-09-15T06:52:30.692Z,94.96
2022-09-15T06:53:30.552Z,94.56
2022-09-15T06:54:30.608Z,94.70
2022-09-15T06:55:30.548Z,95.01
2022-09-15T06:56:34.488Z,94.66
2022-09-15T06:57:31.578Z,94.66
2022-09-15T06:58:30.515Z,93.90
2022-09-15T06:59:30.546Z,93.45
2022-09-15T07:00:30.485Z,92.54
2022-09-15T07:01:30.550Z,91.93
2022-09-15T07:02:30.637Z,91.78
2022-09-15T07:03:30.586Z,91.68
2022-09-15T07:04:30.545Z,91.28
2022-09-15T07:05:30.445Z,91.13
2022-09-15T07:06:30.466Z,90.42
2022-09-15T07:07:30.504Z,89.57
2022-09-15T07:08:30.462Z,87.85
2022-09-15T07:09:30.419Z,88.01
2022-09-15T07:10:30.471Z,87.71
2022-09-15T07:11:30.415Z,86.33
2022-09-15T07:12:30.502Z,86.33
2022-09-15T07:13:30.441Z,88.25
2022-09-15T07:14:30.405Z,88.21
2022-09-15T07:15:30.389Z,87.60
2022-09-15T07:16:30.473Z,87.77
2022-09-15T07:17:30.426Z,88.17
2022-09-15T07:18:30.381Z,87.97
2022-09-15T07:19:30.430Z,88.13
2022-09-15T07:20:30.374Z,86.82
2022-09-15T07:21:30.344Z,86.57
2022-09-15T07:22:30.373Z,86.77
2022-09-15T07:23:30.339Z,86.13
2022-09-15T07:24:30.326Z,86.02
2022-09-15T07:25:30.313Z,86.59
2022-09-15T07:26:30.297Z,85.88
2022-09-15T07:27:30.313Z,84.06
2022-09-15T07:28:30.295Z,84.37
2022-09-15T07:29:30.291Z,84.53
2022-09-15T07:30:30.271Z,83.92
2022-09-15T07:31:30.335Z,82.98
2022-09-15T07:32:30.317Z,81.46
2022-09-15T07:33:30.242Z,81.93
2022-09-15T07:34:30.266Z,81.22
2022-09-15T07:35:30.268Z,79.06
2022-09-15T07:36:30.333Z,79.50
2022-09-15T07:37:30.263Z,79.41
2022-09-15T07:38:30.208Z,80.35
2022-09-15T07:39:30.237Z,79.74
2022-09-15T07:40:30.257Z,80.29
2022-09-15T07:41:30.212Z,80.19
2022-09-15T07:42:35.200Z,79.58
2022-09-15T07:43:32.179Z,81.30
2022-09-15T07:44:30.186Z,82.01
2022-09-15T07:45:30.205Z,81.50
2022-09-15T07:46:30.163Z,81.94
2022-09-15T07:47:30.173Z,83.01
2022-09-15T07:48:30.129Z,81.90
2022-09-15T07:49:30.151Z,82.01
2022-09-15T07:50:30.269Z,82.10
2022-09-15T07:51:30.173Z,81.50
2022-09-15T07:52:30.122Z,81.60
2022-09-15T07:53:30.159Z,81.50
2022-09-15T07:54:30.176Z,82.45
2022-09-15T07:55:30.089Z,82.24
2022-09-15T07:56:30.091Z,82.08
2022-09-15T07:57:30.076Z,83.05
2022-09-15T07:58:30.104Z,82.75
2022-09-15T07:59:30.073Z,83.66
2022-09-15T08:00:30.102Z,84.17
2022-09-15T08:01:30.117Z,84.17
2022-09-15T08:02:30.149Z,85.11
2022-09-15T08:03:30.060Z,85.08
2022-09-15T08:04:30.029Z,84.37
2022-09-15T08:05:30.012Z,84.37
2022-09-15T08:06:30.070Z,83.92
2022-09-15T08:07:30.029Z,83.92
2022-09-15T08:08:30.015Z,83.01
2022-09-15T08:09:30.080Z,82.01
2022-09-15T08:10:29.999Z,82.61
2022-09-15T08:11:30.139Z,82.27
2022-09-15T08:12:29.989Z,82.98
2022-09-15T08:13:29.959Z,83.38
2022-09-15T08:14:29.966Z,82.87
2022-09-15T08:15:29.949Z,83.14
2022-09-15T08:16:30.023Z,83.14
2022-09-15T08:17:29.940Z,82.33
2022-09-15T08:18:29.918Z,81.93
2022-09-15T08:19:29.925Z,82.23
2022-09-15T08:20:29.912Z,82.23
2022-09-15T08:21:29.960Z,82.33
2022-09-15T08:22:29.897Z,82.09
2022-09-15T08:23:29.884Z,81.42
2022-09-15T08:24:29.961Z,80.82
2022-09-15T08:25:29.900Z,80.85
2022-09-15T08:26:29.926Z,80.85
2022-09-15T08:27:29.883Z,82.18
2022-09-15T08:28:29.889Z,84.08
2022-09-15T08:29:29.869Z,86.45
2022-09-15T08:30:29.841Z,86.96
2022-09-15T08:31:30.044Z,87.77
2022-09-15T08:32:30.995Z,86.76
2022-09-15T08:33:29.927Z,86.05
2022-09-15T08:34:29.832Z,86.35
2022-09-15T08:35:29.823Z,86.35
2022-09-15T08:36:29.864Z,86.85
2022-09-15T08:37:29.829Z,85.74
2022-09-15T08:38:29.822Z,85.70
2022-09-15T08:39:29.802Z,85.31
2022-09-15T08:40:29.880Z,83.86
2022-09-15T08:41:29.798Z,83.52
2022-09-15T08:42:29.780Z,86.36
2022-09-15T08:43:30.788Z,83.30
2022-09-15T08:44:29.744Z,81.38
2022-09-15T08:45:29.828Z,79.71
2022-09-15T08:46:29.851Z,80.92
2022-09-15T08:47:29.731Z,81.42
2022-09-15T08:48:29.764Z,81.82
2022-09-15T08:49:49.918Z,80.47
2022-09-15T08:50:31.735Z,79.63
2022-09-15T08:51:29.696Z,81.81
2022-09-15T08:52:29.702Z,81.30
2022-09-15T08:53:29.697Z,82.14
2022-09-15T08:54:29.735Z,80.52
2022-09-15T08:55:29.676Z,75.90
2022-09-15T08:56:29.685Z,74.62
2022-09-15T08:57:29.673Z,75.79
2022-09-15T08:58:29.676Z,75.96
2022-09-15T08:59:29.735Z,76.91
2022-09-15T09:00:29.772Z,78.32
2022-09-15T09:01:29.739Z,77.38
2022-09-15T09:02:29.737Z,78.08
2022-09-15T09:03:29.631Z,78.05
2022-09-15T09:04:29.614Z,76.70
2022-09-15T09:05:29.666Z,76.30
2022-09-15T09:06:29.664Z,76.10
2022-09-15T09:07:29.621Z,76.03
2022-09-15T09:08:29.593Z,73.35
2022-09-15T09:09:29.588Z,72.14
2022-09-15T09:10:29.595Z,72.34
2022-09-15T09:11:29.613Z,72.44
2022-09-15T09:12:29.593Z,72.88
2022-09-15T09:13:34.680Z,74.39
2022-09-15T09:14:31.581Z,74.69
2022-09-15T09:15:29.595Z,76.00
2022-09-15T09:16:29.588Z,76.31
2022-09-15T09:17:29.594Z,76.17
2022-09-15T09:18:29.534Z,76.17
2022-09-15T09:19:32.171Z,76.31
2022-09-15T09:20:30.581Z,76.47
2022-09-15T09:21:29.548Z,75.87
2022-09-15T09:22:29.553Z,74.12
2022-09-15T09:23:29.511Z,76.07
2022-09-15T09:24:29.548Z,74.46
2022-09-15T09:25:29.496Z,75.56
2022-09-15T09:26:29.538Z,75.46
2022-09-15T09:27:29.546Z,74.55
2022-09-15T09:28:29.490Z,75.70
2022-09-15T09:29:29.535Z,74.29
2022-09-15T09:30:29.490Z,74.99
2022-09-15T09:31:29.508Z,75.20
2022-09-15T09:32:29.459Z,74.32
2022-09-15T09:33:29.523Z,73.82
2022-09-15T09:34:29.475Z,73.22
2022-09-15T09:35:29.452Z,74.26
2022-09-15T09:36:29.446Z,73.96
2022-09-15T09:37:29.441Z,74.19
2022-09-15T09:38:29.449Z,74.80
2022-09-15T09:39:29.407Z,75.91
2022-09-15T09:40:29.462Z,74.09
2022-09-15T09:41:29.411Z,74.13
2022-09-15T09:42:29.462Z,75.74
2022-09-15T09:43:29.457Z,76.25
2022-09-15T09:44:29.366Z,74.60
2022-09-15T09:45:29.374Z,75.31
2022-09-15T09:46:29.407Z,75.60
2022-09-15T09:47:29.374Z,75.10
2022-09-15T09:48:29.366Z,75.77
2022-09-15T09:49:29.425Z,73.85
2022-09-15T09:50:29.359Z,74.76
2022-09-15T09:51:29.321Z,75.51
2022-09-15T09:52:29.335Z,76.31
2022-09-15T09:53:29.298Z,75.71
2022-09-15T09:54:29.333Z,74.60
2022-09-15T09:55:29.294Z,74.69
2022-09-15T09:56:29.305Z,76.21
2022-09-15T09:57:29.344Z,76.55
2022-09-15T09:58:29.303Z,76.31
2022-09-15T09:59:29.298Z,77.12
2022-09-15T10:00:29.253Z,76.42
2022-09-15T10:01:29.324Z,75.81
2022-09-15T10:02:29.277Z,76.51
2022-09-15T10:03:32.846Z,76.42
2022-09-15T10:04:30.351Z,76.31
2022-09-15T10:05:29.297Z,77.12
2022-09-15T10:06:29.229Z,76.31
2022-09-15T10:07:29.220Z,77.46
2022-09-15T10:08:29.208Z,76.08
2022-09-15T10:09:33.289Z,78.61
2022-09-15T10:10:30.361Z,76.35
2022-09-15T10:11:29.191Z,75.68
2022-09-15T10:12:29.194Z,75.98
2022-09-15T10:13:29.186Z,76.35
2022-09-15T10:14:29.175Z,76.48
2022-09-15T10:15:29.185Z,76.08
2022-09-15T10:16:29.177Z,75.68
2022-09-15T10:17:29.134Z,75.84
2022-09-15T10:18:29.165Z,76.39
2022-09-15T10:19:29.229Z,76.45
2022-09-15T10:20:29.161Z,76.69
2022-09-15T10:21:29.145Z,76.25
2022-09-15T10:22:29.115Z,77.15
2022-09-15T10:23:29.139Z,75.95
2022-09-15T10:24:29.139Z,74.97
2022-09-15T10:25:44.271Z,75.44
2022-09-15T10:26:31.145Z,74.33
2022-09-15T10:27:29.090Z,75.10
2022-09-15T10:28:29.093Z,75.13
2022-09-15T10:29:29.072Z,76.25
2022-09-15T10:30:29.103Z,75.31
2022-09-15T10:31:29.168Z,75.04
2022-09-15T10:32:29.077Z,74.29
2022-09-15T10:33:29.048Z,73.28
2022-09-15T10:34:29.033Z,71.80
2022-09-15T10:35:29.061Z,72.21
2022-09-15T10:36:29.051Z,71.77
2022-09-15T10:37:29.126Z,69.58
2022-09-15T10:38:29.016Z,70.89
2022-09-15T10:39:29.032Z,71.20
2022-09-15T10:40:29.022Z,71.20
2022-09-15T10:41:29.004Z,72.04
2022-09-15T10:42:29.039Z,72.44
2022-09-15T10:43:29.035Z,71.64
2022-09-15T10:44:29.156Z,71.30
2022-09-15T10:45:29.162Z,72.31
2022-09-15T10:46:28.996Z,71.70
2022-09-15T10:47:28.972Z,72.00
2022-09-15T10:48:28.935Z,71.30
2022-09-15T10:49:28.951Z,71.97
2022-09-15T10:50:28.923Z,72.41
2022-09-15T10:51:28.993Z,71.80
2022-09-15T10:52:28.993Z,71.50
2022-09-15T10:53:29.028Z,74.80
2022-09-15T10:54:28.943Z,74.40
2022-09-15T10:55:51.106Z,73.28
2022-09-15T10:56:30.884Z,70.56
2022-09-15T10:57:28.945Z,70.46
2022-09-15T10:58:29.020Z,73.38
2022-09-15T10:59:28.929Z,72.68
2022-09-15T11:00:28.967Z,71.00
2022-09-15T11:01:28.856Z,71.87
2022-09-15T11:02:28.955Z,70.96
2022-09-15T11:03:28.876Z,70.76
2022-09-15T11:04:28.844Z,69.55
2022-09-15T11:05:28.857Z,70.56
2022-09-15T11:06:28.855Z,73.28
2022-09-15T11:07:28.824Z,70.86
2022-09-15T11:08:28.837Z,67.90
2022-09-15T11:09:28.800Z,69.01
2022-09-15T11:10:28.892Z,67.60
2022-09-15T11:11:28.823Z,67.40
2022-09-15T11:12:29.563Z,64.24
2022-09-15T11:13:29.785Z,64.87
2022-09-15T11:14:28.788Z,63.67
2022-09-15T11:15:28.757Z,63.87
2022-09-15T11:16:28.882Z,65.48
2022-09-15T11:17:28.857Z,66.39
2022-09-15T11:18:28.737Z,63.87
2022-09-15T11:19:28.773Z,63.87
2022-09-15T11:20:28.792Z,65.15
2022-09-15T11:21:29.708Z,61.55
2022-09-15T11:22:28.783Z,63.13
2022-09-15T11:23:28.756Z,63.26
2022-09-15T11:24:28.694Z,63.16
2022-09-15T11:25:28.731Z,62.65
2022-09-15T11:26:28.712Z,63.06
2022-09-15T11:27:28.747Z,64.34
2022-09-15T11:28:28.666Z,63.64
2022-09-15T11:29:28.679Z,63.73
2022-09-15T11:30:28.676Z,62.49
2022-09-15T11:31:28.682Z,62.02
2022-09-15T11:32:28.677Z,61.32
2022-09-15T11:33:28.782Z,62.52
2022-09-15T11:34:28.636Z,61.52
2022-09-15T11:35:28.635Z,62.09
2022-09-15T11:36:28.613Z,61.29
2022-09-15T11:37:28.631Z,61.79
2022-09-15T11:38:28.624Z,61.08
2022-09-15T11:39:28.659Z,59.57
2022-09-15T11:40:28.652Z,59.07
2022-09-15T11:41:28.661Z,61.01
2022-09-15T11:42:28.577Z,61.52
2022-09-15T11:43:28.595Z,62.32
2022-09-15T11:44:28.556Z,61.01
2022-09-15T11:45:28.572Z,60.78
2022-09-15T11:46:28.624Z,61.76
2022-09-15T11:47:28.559Z,61.05
2022-09-15T11:48:28.562Z,61.96
2022-09-15T11:49:28.551Z,61.25
2022-09-15T11:50:28.551Z,59.95
2022-09-15T11:51:28.546Z,59.14
2022-09-15T11:52:28.526Z,59.67
2022-09-15T11:53:28.534Z,60.15
2022-09-15T11:54:31.345Z,58.23
2022-09-15T11:55:29.507Z,61.16
2022-09-15T11:56:28.493Z,60.85
2022-09-15T11:57:28.489Z,59.34
2022-09-15T11:58:28.498Z,60.45
2022-09-15T11:59:28.471Z,59.31
2022-09-15T12:00:28.491Z,59.28
2022-09-15T12:01:28.515Z,60.16
2022-09-15T12:02:28.616Z,62.58
2022-09-15T12:03:28.453Z,61.74
2022-09-15T12:04:28.483Z,61.01
2022-09-15T12:05:28.474Z,60.98
2022-09-15T12:06:28.444Z,59.65
2022-09-15T12:07:28.435Z,60.96
2022-09-15T12:08:28.436Z,57.94
2022-09-15T12:09:28.442Z,59.22
2022-09-15T12:10:28.425Z,56.91
2022-09-15T12:11:28.449Z,57.51
2022-09-15T12:12:30.734Z,58.81
2022-09-15T12:13:28.402Z,55.51
2022-09-15T12:14:28.395Z,54.96
2022-09-15T12:15:28.539Z,52.64
2022-09-15T12:16:28.407Z,55.79
2022-09-15T12:17:28.397Z,54.38
2022-09-15T12:18:38.969Z,54.40
2022-09-15T12:19:30.350Z,55.03
2022-09-15T12:20:28.339Z,52.94
2022-09-15T12:21:28.382Z,54.79
2022-09-15T12:22:28.457Z,55.08
2022-09-15T12:23:28.343Z,56.20
2022-09-15T12:24:28.317Z,55.99
2022-09-15T12:25:28.335Z,55.79
2022-09-15T12:26:28.394Z,56.62
2022-09-15T12:27:28.327Z,57.40
2022-09-15T12:28:28.429Z,57.10
2022-09-15T12:29:28.325Z,59.01
2022-09-15T12:30:28.280Z,57.28
2022-09-15T12:31:28.358Z,57.68
2022-09-15T12:32:28.261Z,57.00
2022-09-15T12:33:28.292Z,57.17
2022-09-15T12:34:28.284Z,56.49
2022-09-15T12:35:28.277Z,57.03
2022-09-15T12:36:28.290Z,56.22
2022-09-15T12:37:28.251Z,55.41
2022-09-15T12:38:28.246Z,56.32
2022-09-15T12:39:28.314Z,57.63
2022-09-15T12:40:28.342Z,57.12
2022-09-15T12:41:28.294Z,57.03
2022-09-15T12:42:28.247Z,57.23
2022-09-15T12:43:28.247Z,56.72
2022-09-15T12:44:28.201Z,56.24
2022-09-15T12:45:28.185Z,55.91
2022-09-15T12:46:28.366Z,55.94
2022-09-15T12:47:28.195Z,56.45
2022-09-15T12:48:28.188Z,56.95
2022-09-15T12:49:28.224Z,56.85
2022-09-15T12:50:28.214Z,58.87
2022-09-15T12:51:28.186Z,58.47
2022-09-15T12:52:28.182Z,57.35